Time;durP1;ratioP1;P1;durP2;ratioP2;P2;SDS_P1;SDS_P2;PMS_P1;PMS_P2;Temp;Humidity;BMP_temperature;BMP_pressure;BME280_temperature;BME280_humidity;BME280_pressure;Samples;Min_cycle;Max_cycle;Signal;HPM_P1;HPM_P2
2023/03/07 00:02:15;;;;;;;10.87;7.60;;;;;;;4.70;65.58;97583.94;4978228;28;102655;-61
2023/03/07 00:04:46;;;;;;;11.40;9.07;;;;;;;4.72;65.73;97574.19;4977757;28;102673;-60
2023/03/07 00:07:14;;;;;;;11.77;8.47;;;;;;;4.74;66.08;97574.13;4976642;28;103957;-60
2023/03/07 00:09:42;;;;;;;9.67;7.47;;;;;;;4.75;65.70;97579.22;4975429;28;103194;-60
2023/03/07 00:12:11;;;;;;;11.13;8.13;;;;;;;4.69;66.09;97584.88;4975843;28;103119;-60
2023/03/07 00:14:39;;;;;;;10.83;7.93;;;;;;;4.62;66.12;97583.59;4978174;28;102597;-60
2023/03/07 00:17:07;;;;;;;10.07;7.60;;;;;;;4.75;65.96;97581.84;4971491;28;103217;-60
2023/03/07 00:19:35;;;;;;;10.47;7.57;;;;;;;4.84;65.51;97576.00;4972908;28;103176;-61
2023/03/07 00:22:04;;;;;;;10.00;7.57;;;;;;;4.92;64.79;97573.72;4978059;28;102715;-61
2023/03/07 00:24:32;;;;;;;10.60;7.70;;;;;;;4.98;64.79;97577.69;4974000;28;102694;-60
2023/03/07 00:27:00;;;;;;;9.07;6.93;;;;;;;4.88;65.24;97582.72;4974297;28;103254;-61
2023/03/07 00:29:28;;;;;;;8.97;7.07;;;;;;;4.96;65.24;97574.34;4970928;28;103170;-60
2023/03/07 00:31:56;;;;;;;11.17;8.77;;;;;;;4.86;64.90;97574.13;4970633;28;102684;-60
2023/03/07 00:34:24;;;;;;;10.90;7.67;;;;;;;4.94;64.79;97568.38;4966935;28;102761;-61
2023/03/07 00:36:53;;;;;;;10.80;8.77;;;;;;;4.93;65.20;97566.69;4969214;28;104900;-60
2023/03/07 00:39:22;;;;;;;9.13;6.80;;;;;;;4.80;65.38;97571.91;4971181;28;103238;-60
2023/03/07 00:41:50;;;;;;;9.73;8.07;;;;;;;4.73;65.19;97569.81;4971584;28;102933;-61
2023/03/07 00:44:18;;;;;;;10.97;8.27;;;;;;;4.83;65.06;97558.63;4971359;28;103953;-60
2023/03/07 00:46:46;;;;;;;13.87;9.13;;;;;;;4.61;65.21;97553.16;4970290;28;103300;-60
2023/03/07 00:49:14;;;;;;;15.17;7.73;;;;;;;4.21;67.00;97541.03;4973833;28;103198;-60
2023/03/07 00:51:42;;;;;;;16.27;9.33;;;;;;;4.52;66.28;97538.91;4972869;28;103311;-60
2023/03/07 00:54:10;;;;;;;13.47;7.83;;;;;;;4.58;65.64;97537.66;4974816;28;102716;-60
2023/03/07 00:56:42;;;;;;;11.40;7.80;;;;;;;4.47;65.56;97537.53;4974613;28;103881;-60
2023/03/07 00:59:10;;;;;;;10.90;8.20;;;;;;;4.57;65.28;97541.22;4975130;28;103418;-61
2023/03/07 01:01:39;;;;;;;9.87;7.20;;;;;;;4.56;65.25;97534.31;4970829;28;102880;-61
2023/03/07 01:04:07;;;;;;;12.00;8.00;;;;;;;4.50;65.79;97540.78;4967631;28;102758;-60
2023/03/07 01:06:35;;;;;;;11.13;7.87;;;;;;;4.44;65.25;97540.34;4970049;28;103272;-60
2023/03/07 01:09:06;;;;;;;12.97;8.20;;;;;;;4.53;65.42;97544.97;4972403;28;103194;-60
2023/03/07 01:11:36;;;;;;;10.50;8.60;;;;;;;4.60;65.07;97535.78;4973019;28;102993;-60
2023/03/07 01:14:06;;;;;;;10.97;8.43;;;;;;;4.62;64.65;97539.13;4974498;28;103170;-60
2023/03/07 01:16:37;;;;;;;10.57;7.63;;;;;;;4.42;64.94;97545.69;4969890;28;103444;-60
2023/03/07 01:19:07;;;;;;;11.03;7.40;;;;;;;4.66;64.96;97546.66;4963265;28;105413;-60
2023/03/07 01:21:37;;;;;;;9.27;6.47;;;;;;;4.74;64.55;97537.47;4966859;28;102755;-60
2023/03/07 01:24:06;;;;;;;9.17;6.77;;;;;;;4.74;64.94;97527.88;4967253;28;102763;-61
2023/03/07 01:26:34;;;;;;;9.30;6.67;;;;;;;4.69;64.33;97535.16;4966519;28;104051;-61
2023/03/07 01:29:06;;;;;;;10.43;7.70;;;;;;;4.78;64.44;97533.69;4971263;28;103349;-61
2023/03/07 01:31:36;;;;;;;10.17;7.27;;;;;;;4.84;63.69;97528.91;4968351;28;103484;-60
2023/03/07 01:34:05;;;;;;;10.53;7.57;;;;;;;4.86;63.27;97526.16;4960957;28;102756;-61
2023/03/07 01:36:36;;;;;;;12.37;7.43;;;;;;;4.90;63.21;97530.25;4979177;28;103208;-61
2023/03/07 01:39:06;;;;;;;10.60;7.30;;;;;;;4.68;63.83;97523.88;4970187;28;106388;-60
2023/03/07 01:41:38;;;;;;;10.20;7.47;;;;;;;4.87;62.67;97523.47;4968042;28;102729;-60
2023/03/07 01:44:16;;;;;;;8.77;7.23;;;;;;;4.66;63.22;97519.66;4968399;28;103437;-60
2023/03/07 01:46:47;;;;;;;9.57;7.63;;;;;;;4.45;63.73;97515.88;4974396;28;103792;-60
2023/03/07 01:49:21;;;;;;;10.07;7.13;;;;;;;4.80;62.38;97521.38;4970645;28;103480;-60
2023/03/07 01:51:59;;;;;;;8.47;6.33;;;;;;;4.83;62.49;97510.69;4970437;28;102818;-61
2023/03/07 01:54:29;;;;;;;7.60;6.10;;;;;;;4.87;62.05;97507.75;4962770;28;102823;-61
2023/03/07 01:56:58;;;;;;;10.37;7.90;;;;;;;4.75;61.92;97503.34;4963944;28;103236;-60
2023/03/07 01:59:33;;;;;;;9.83;7.03;;;;;;;4.87;62.61;97510.38;4973446;28;103178;-61
2023/03/07 02:02:07;;;;;;;9.33;7.20;;;;;;;4.76;62.01;97502.41;4969594;28;103509;-60
2023/03/07 02:04:42;;;;;;;9.23;7.47;;;;;;;4.82;61.61;97504.63;4968595;28;103956;-60
2023/03/07 02:07:11;;;;;;;10.17;6.97;;;;;;;4.77;62.46;97495.41;4966668;28;104040;-61
2023/03/07 02:09:39;;;;;;;8.00;6.43;;;;;;;4.79;62.54;97499.59;4981930;28;103173;-61
2023/03/07 02:12:07;;;;;;;11.30;8.07;;;;;;;4.47;62.87;97493.06;4973132;28;103746;-60
2023/03/07 02:14:37;;;;;;;10.30;7.27;;;;;;;4.59;62.83;97489.63;4988629;28;102990;-60
2023/03/07 02:17:06;;;;;;;10.83;7.60;;;;;;;4.56;62.51;97493.31;4972211;28;103883;-60
2023/03/07 02:19:48;;;;;;;9.03;7.27;;;;;;;4.75;62.07;97498.13;4984692;28;103309;-60
2023/03/07 02:22:18;;;;;;;10.13;7.50;;;;;;;4.64;61.79;97490.16;4970376;28;102812;-60
2023/03/07 02:24:52;;;;;;;9.27;6.53;;;;;;;4.63;62.04;97493.72;4973810;28;102960;-60
2023/03/07 02:27:24;;;;;;;9.87;7.43;;;;;;;4.76;61.52;97494.56;4969664;28;103319;-60
2023/03/07 02:29:52;;;;;;;9.17;7.07;;;;;;;4.59;62.14;97484.41;4972838;28;103209;-60
2023/03/07 02:32:23;;;;;;;9.43;7.60;;;;;;;4.46;62.50;97484.38;4973417;28;102968;-60
2023/03/07 02:34:51;;;;;;;10.33;7.27;;;;;;;4.58;62.56;97477.50;4970481;28;102777;-61
2023/03/07 02:37:25;;;;;;;10.10;7.13;;;;;;;4.63;62.27;97478.84;4970455;28;103471;-61
2023/03/07 02:39:56;;;;;;;9.67;6.43;;;;;;;4.57;62.39;97467.97;4969174;28;102889;-60
2023/03/07 02:42:29;;;;;;;7.77;6.60;;;;;;;4.62;62.76;97466.72;5001327;28;102957;-60
2023/03/07 02:45:10;;;;;;;9.63;7.73;;;;;;;4.27;63.41;97462.16;4971882;28;103147;-60
2023/03/07 02:47:42;;;;;;;11.37;7.37;;;;;;;4.25;63.98;97458.81;4972726;28;103319;-60
2023/03/07 02:50:13;;;;;;;10.20;7.17;;;;;;;4.39;63.32;97464.81;4974483;28;103112;-61
2023/03/07 02:52:43;;;;;;;9.23;7.20;;;;;;;4.36;62.97;97458.94;4972064;28;103258;-60
2023/03/07 02:55:12;;;;;;;9.80;7.43;;;;;;;4.26;63.47;97452.66;4976065;28;104268;-61
2023/03/07 02:57:48;;;;;;;8.50;6.67;;;;;;;4.29;63.73;97447.25;5000819;28;103467;-61
2023/03/07 03:00:17;;;;;;;12.63;8.03;;;;;;;4.32;63.39;97447.03;4967879;28;103287;-60
2023/03/07 03:02:45;;;;;;;9.23;7.20;;;;;;;4.36;63.17;97448.50;4970462;28;103315;-60
2023/03/07 03:05:13;;;;;;;10.30;7.07;;;;;;;4.37;63.40;97447.56;4975352;28;102801;-60
2023/03/07 03:07:41;;;;;;;7.80;5.77;;;;;;;4.47;63.19;97446.84;4979191;28;104000;-60
2023/03/07 03:10:10;;;;;;;8.57;6.80;;;;;;;4.42;63.73;97442.84;4970598;28;103402;-60
2023/03/07 03:12:38;;;;;;;8.77;6.50;;;;;;;4.35;63.68;97437.19;4973962;28;103773;-61
2023/03/07 03:15:10;;;;;;;11.07;7.93;;;;;;;4.40;63.96;97447.34;4964234;28;102952;-61
2023/03/07 03:17:38;;;;;;;10.80;7.77;;;;;;;4.32;63.74;97441.81;4969222;28;103270;-60
2023/03/07 03:20:10;;;;;;;9.80;6.87;;;;;;;4.36;63.85;97444.09;4970471;28;103252;-61
2023/03/07 03:22:39;;;;;;;9.00;7.20;;;;;;;4.41;63.66;97438.56;4973408;28;102674;-60
2023/03/07 03:25:10;;;;;;;9.13;7.50;;;;;;;4.21;63.79;97445.09;4973440;28;102729;-60
2023/03/07 03:27:40;;;;;;;10.60;8.00;;;;;;;4.31;64.05;97445.34;4974111;28;103283;-60
2023/03/07 03:30:14;;;;;;;11.70;6.73;;;;;;;4.36;63.77;97433.63;4973410;28;105100;-60
2023/03/07 03:32:43;;;;;;;9.70;7.40;;;;;;;4.26;63.37;97436.97;4967377;28;102724;-61
2023/03/07 03:35:14;;;;;;;7.43;6.57;;;;;;;4.33;63.71;97443.47;4974571;28;102806;-61
2023/03/07 03:37:43;;;;;;;10.73;7.33;;;;;;;4.35;63.96;97444.22;4970783;28;103361;-60
2023/03/07 03:40:16;;;;;;;9.97;7.97;;;;;;;4.30;63.95;97443.66;4970499;28;103067;-61
2023/03/07 03:42:46;;;;;;;10.60;8.30;;;;;;;4.31;64.14;97437.50;4974815;28;102920;-60
2023/03/07 03:45:18;;;;;;;9.17;7.43;;;;;;;4.34;63.77;97437.31;4972514;28;102683;-61
2023/03/07 03:47:47;;;;;;;11.87;8.30;;;;;;;4.30;63.22;97430.59;4973207;28;103811;-60
2023/03/07 03:50:16;;;;;;;10.27;8.00;;;;;;;4.39;63.15;97437.81;4970314;28;103193;-61
2023/03/07 03:52:44;;;;;;;9.43;7.30;;;;;;;4.46;63.53;97439.09;4981986;28;102690;-60
2023/03/07 03:55:13;;;;;;;9.10;7.17;;;;;;;4.54;63.16;97421.13;4972390;28;102784;-61
2023/03/07 03:57:41;;;;;;;10.67;7.77;;;;;;;4.49;63.43;97423.22;4973172;28;103299;-61
2023/03/07 04:00:13;;;;;;;12.47;8.33;;;;;;;4.49;63.31;97413.56;4973611;28;104226;-60
2023/03/07 04:02:43;;;;;;;8.20;7.03;;;;;;;4.52;63.76;97423.00;4974630;28;102719;-60
2023/03/07 04:05:15;;;;;;;10.50;7.70;;;;;;;4.44;63.53;97420.03;4984173;28;102822;-60
2023/03/07 04:07:44;;;;;;;10.63;7.63;;;;;;;4.20;63.83;97424.31;4969441;28;103510;-60
2023/03/07 04:10:12;;;;;;;11.37;8.03;;;;;;;4.30;64.35;97420.13;4971046;28;103215;-60
2023/03/07 04:12:40;;;;;;;10.33;7.67;;;;;;;4.21;64.73;97420.78;4975716;28;102947;-60
2023/03/07 04:15:09;;;;;;;10.03;7.40;;;;;;;4.27;64.89;97412.50;4971586;28;102713;-61
2023/03/07 04:17:39;;;;;;;11.40;8.07;;;;;;;4.12;65.43;97413.53;4973180;28;103234;-60
2023/03/07 04:20:16;;;;;;;9.43;7.53;;;;;;;4.28;65.14;97415.03;4975704;28;103212;-60
2023/03/07 04:22:45;;;;;;;10.60;7.80;;;;;;;4.30;65.01;97407.06;4974759;28;102636;-60
2023/03/07 04:25:13;;;;;;;10.87;8.57;;;;;;;4.31;65.46;97406.13;4972363;28;102785;-60
2023/03/07 04:27:41;;;;;;;11.30;7.90;;;;;;;4.38;64.64;97410.03;4973125;28;103440;-60
2023/03/07 04:30:11;;;;;;;10.83;7.83;;;;;;;4.41;64.85;97402.78;4972490;28;103174;-60
2023/03/07 04:32:41;;;;;;;13.93;9.50;;;;;;;4.30;65.35;97407.06;4975644;28;103042;-60
2023/03/07 04:35:10;;;;;;;11.80;8.40;;;;;;;4.39;64.78;97412.53;4973016;28;102714;-60
2023/03/07 04:37:38;;;;;;;10.50;8.20;;;;;;;4.55;64.81;97402.69;4971606;28;104141;-60
2023/03/07 04:40:07;;;;;;;11.00;8.07;;;;;;;4.70;64.22;97406.03;4974236;28;104251;-60
2023/03/07 04:42:35;;;;;;;11.57;8.43;;;;;;;4.71;63.72;97406.88;4972798;28;103801;-61
2023/03/07 04:45:04;;;;;;;11.50;8.30;;;;;;;4.67;64.01;97398.38;4974263;28;104103;-60
2023/03/07 04:47:32;;;;;;;11.40;7.67;;;;;;;4.61;64.61;97393.56;4971701;28;103309;-60
2023/03/07 04:50:00;;;;;;;13.27;8.53;;;;;;;4.46;64.68;97397.25;4971230;28;103249;-60
2023/03/07 04:52:31;;;;;;;13.23;8.00;;;;;;;4.50;64.70;97393.47;4971292;28;102664;-56
2023/03/07 04:54:59;;;;;;;11.93;8.40;;;;;;;4.32;64.20;97394.75;4996073;27;102823;-60
2023/03/07 04:57:27;;;;;;;12.07;8.60;;;;;;;4.32;64.63;97399.97;4965016;28;105112;-61
2023/03/07 04:59:55;;;;;;;11.30;8.40;;;;;;;4.42;64.05;97385.31;4968333;28;105122;-60
2023/03/07 05:02:23;;;;;;;12.03;7.77;;;;;;;4.40;64.46;97389.81;4966887;28;102723;-60
2023/03/07 05:04:52;;;;;;;13.30;8.03;;;;;;;4.53;64.32;97377.56;4990571;28;103833;-60
2023/03/07 05:07:21;;;;;;;11.00;8.70;;;;;;;4.41;64.26;97373.19;4968079;28;103396;-60
2023/03/07 05:09:52;;;;;;;11.80;8.27;;;;;;;4.24;65.06;97376.13;4964318;28;103197;-60
2023/03/07 05:12:20;;;;;;;14.90;8.20;;;;;;;4.35;64.50;97378.84;4969888;28;102748;-60
2023/03/07 05:14:49;;;;;;;10.87;7.97;;;;;;;4.30;65.04;97380.91;4963900;28;104789;-60
2023/03/07 05:17:18;;;;;;;12.37;8.40;;;;;;;4.27;65.02;97373.28;4964653;28;103188;-60
2023/03/07 05:19:46;;;;;;;12.67;8.17;;;;;;;4.42;64.72;97369.63;4972933;28;103165;-60
2023/03/07 05:22:14;;;;;;;11.50;8.40;;;;;;;4.30;64.61;97365.22;4968527;28;102727;-61
2023/03/07 05:24:43;;;;;;;13.20;8.60;;;;;;;4.18;64.78;97376.53;4973584;28;104026;-60
2023/03/07 05:27:13;;;;;;;10.17;8.03;;;;;;;4.06;65.08;97360.75;4972931;28;103103;-61
2023/03/07 05:29:41;;;;;;;11.40;8.50;;;;;;;4.10;64.71;97354.34;4972840;28;103172;-61
2023/03/07 05:32:10;;;;;;;11.57;8.33;;;;;;;4.29;64.98;97356.56;4974901;28;102846;-61
2023/03/07 05:34:39;;;;;;;14.53;9.20;;;;;;;4.30;64.73;97365.22;4971778;28;102732;-61
2023/03/07 05:37:07;;;;;;;12.50;8.23;;;;;;;4.31;65.05;97369.53;4969910;28;103281;-61
2023/03/07 05:39:36;;;;;;;13.30;8.73;;;;;;;4.29;64.40;97361.81;4975857;28;103017;-61
2023/03/07 05:42:04;;;;;;;11.17;8.33;;;;;;;4.23;64.61;97366.59;4974670;28;102859;-62
2023/03/07 05:44:35;;;;;;;13.53;8.53;;;;;;;4.26;64.47;97363.78;4966755;28;104241;-62
2023/03/07 05:47:05;;;;;;;10.43;8.57;;;;;;;4.30;64.03;97362.63;4976037;28;103376;-62
2023/03/07 05:49:34;;;;;;;12.43;9.30;;;;;;;4.28;64.11;97357.50;4973080;28;103146;-60
2023/03/07 05:52:03;;;;;;;11.70;8.13;;;;;;;4.40;64.46;97355.84;4973763;28;103118;-60
2023/03/07 05:54:31;;;;;;;11.70;8.77;;;;;;;4.24;63.92;97342.16;4974277;28;103547;-60
2023/03/07 05:56:59;;;;;;;11.37;8.40;;;;;;;4.46;63.80;97360.66;4973731;28;103293;-60
2023/03/07 05:59:30;;;;;;;12.33;8.83;;;;;;;4.33;64.42;97362.41;4976833;28;103244;-61
2023/03/07 06:01:59;;;;;;;13.13;8.40;;;;;;;4.43;63.61;97361.69;4970375;28;102701;-63
2023/03/07 06:04:28;;;;;;;10.30;8.00;;;;;;;4.33;63.94;97354.56;4974035;28;102653;-60
2023/03/07 06:06:56;;;;;;;10.07;8.17;;;;;;;4.53;63.85;97351.41;4963401;28;103311;-60
2023/03/07 06:09:25;;;;;;;10.83;8.43;;;;;;;4.54;63.31;97353.09;4971620;28;103383;-60
2023/03/07 06:11:55;;;;;;;9.20;7.87;;;;;;;4.64;63.32;97346.28;4969598;28;102825;-60
2023/03/07 06:14:23;;;;;;;10.63;8.30;;;;;;;4.58;62.94;97344.09;4967694;28;103603;-61
2023/03/07 06:16:51;;;;;;;11.83;7.93;;;;;;;4.52;63.58;97339.31;4970051;28;103211;-61
2023/03/07 06:19:21;;;;;;;11.43;8.63;;;;;;;4.38;63.71;97337.63;4972620;28;103722;-61
2023/03/07 06:21:50;;;;;;;10.77;8.67;;;;;;;4.48;63.26;97343.91;4968849;28;102809;-61
2023/03/07 06:24:21;;;;;;;13.07;9.10;;;;;;;4.54;62.75;97333.03;4966634;28;102802;-61
2023/03/07 06:26:50;;;;;;;11.27;8.53;;;;;;;4.46;62.91;97342.34;4967527;28;103241;-61
2023/03/07 06:29:20;;;;;;;12.00;8.60;;;;;;;4.34;63.63;97340.56;4970975;28;103404;-61
2023/03/07 06:31:49;;;;;;;10.37;7.23;;;;;;;4.55;62.97;97337.28;4966363;28;103221;-61
2023/03/07 06:34:18;;;;;;;13.70;8.93;;;;;;;4.54;62.76;97333.03;4966662;28;102701;-61
2023/03/07 06:36:48;;;;;;;10.17;7.63;;;;;;;4.59;62.76;97335.31;4972365;28;103243;-61
2023/03/07 06:39:19;;;;;;;12.63;8.40;;;;;;;4.43;62.77;97338.16;4976389;28;103345;-61
2023/03/07 06:41:51;;;;;;;10.77;7.97;;;;;;;4.47;62.88;97344.00;4968901;28;103056;-60
2023/03/07 06:44:19;;;;;;;10.17;7.77;;;;;;;4.29;62.58;97338.28;4975081;28;104380;-61
2023/03/07 06:46:47;;;;;;;10.83;8.60;;;;;;;4.53;62.39;97336.56;4977038;28;103223;-61
2023/03/07 06:49:19;;;;;;;12.47;9.00;;;;;;;4.37;62.52;97340.34;4977023;28;103059;-60
2023/03/07 06:51:49;;;;;;;10.20;8.70;;;;;;;4.44;62.59;97336.34;4977825;28;102765;-61
2023/03/07 06:54:18;;;;;;;11.50;8.40;;;;;;;4.56;62.18;97340.75;4971966;28;102719;-60
2023/03/07 06:56:46;;;;;;;9.33;7.83;;;;;;;4.54;62.16;97347.88;4974326;28;103321;-60
2023/03/07 06:59:19;;;;;;;10.33;7.33;;;;;;;4.45;62.32;97345.88;4975029;28;103292;-60
2023/03/07 07:01:47;;;;;;;12.60;8.37;;;;;;;4.50;62.55;97343.78;4971859;28;103528;-60
2023/03/07 07:04:18;;;;;;;12.83;8.17;;;;;;;4.41;62.42;97353.09;4976963;28;102802;-61
2023/03/07 07:06:47;;;;;;;9.73;7.80;;;;;;;4.67;62.59;97344.28;4973337;28;105546;-60
2023/03/07 07:09:16;;;;;;;11.47;8.63;;;;;;;4.61;62.06;97343.88;4974591;28;103163;-60
2023/03/07 07:11:44;;;;;;;12.13;8.00;;;;;;;4.69;61.79;97347.63;4969012;28;103199;-60
2023/03/07 07:14:13;;;;;;;10.33;7.60;;;;;;;4.72;61.67;97346.59;4977696;28;104102;-60
2023/03/07 07:16:42;;;;;;;10.10;7.67;;;;;;;4.68;61.93;97348.59;4970595;28;103172;-60
2023/03/07 07:19:10;;;;;;;10.60;7.77;;;;;;;5.00;61.18;97340.22;4973242;28;103248;-60
2023/03/07 07:21:38;;;;;;;9.87;7.70;;;;;;;5.05;61.24;97333.72;4973690;28;103324;-60
2023/03/07 07:24:06;;;;;;;9.10;7.20;;;;;;;5.11;61.08;97340.31;4976628;28;102661;-60
2023/03/07 07:26:36;;;;;;;12.80;7.33;;;;;;;5.15;60.68;97337.38;4970236;28;103183;-61
2023/03/07 07:29:04;;;;;;;8.97;6.90;;;;;;;5.24;61.37;97339.34;4971688;28;104051;-60
2023/03/07 07:31:32;;;;;;;8.53;6.93;;;;;;;5.37;60.36;97334.03;4973186;28;102774;-60
2023/03/07 07:34:00;;;;;;;10.23;7.67;;;;;;;5.45;60.04;97341.31;4987906;28;104030;-60
2023/03/07 07:36:33;;;;;;;10.17;7.63;;;;;;;5.40;60.19;97346.06;4974404;28;104112;-60
2023/03/07 07:39:03;;;;;;;11.33;7.33;;;;;;;5.31;60.33;97337.09;4977190;28;103396;-61
2023/03/07 07:41:33;;;;;;;9.63;7.40;;;;;;;5.52;59.90;97326.84;4976137;28;102847;-60
2023/03/07 07:44:04;;;;;;;9.43;7.47;;;;;;;5.47;59.94;97332.44;4976569;28;102942;-61
2023/03/07 07:46:36;;;;;;;10.50;7.10;;;;;;;5.50;59.77;97331.38;4972023;28;104200;-61
2023/03/07 07:49:06;;;;;;;9.80;7.50;;;;;;;5.59;59.53;97335.91;4975346;28;103180;-60
2023/03/07 07:51:35;;;;;;;9.13;7.43;;;;;;;5.46;59.25;97328.13;4975984;28;102662;-60
2023/03/07 07:54:03;;;;;;;8.07;6.53;;;;;;;5.75;59.30;97339.09;4974801;28;103778;-60
2023/03/07 07:56:31;;;;;;;9.03;6.90;;;;;;;5.75;59.26;97341.72;4971236;28;104306;-60
2023/03/07 07:58:59;;;;;;;8.97;7.60;;;;;;;5.68;58.86;97343.94;4986543;28;104465;-61
2023/03/07 08:01:30;;;;;;;9.93;7.23;;;;;;;5.71;58.85;97332.38;4991028;28;103098;-61
2023/03/07 08:03:58;;;;;;;9.77;7.13;;;;;;;5.73;58.48;97335.72;4974145;28;103827;-60
2023/03/07 08:06:27;;;;;;;12.13;7.07;;;;;;;5.87;58.34;97330.31;4974818;28;103146;-61
2023/03/07 08:08:56;;;;;;;11.07;6.90;;;;;;;5.86;58.19;97339.16;4971990;28;103215;-61
2023/03/07 08:11:26;;;;;;;12.13;7.43;;;;;;;5.87;57.84;97322.47;4974035;28;102683;-61
2023/03/07 08:13:54;;;;;;;9.43;7.70;;;;;;;5.88;57.70;97323.31;4978590;28;103755;-60
2023/03/07 08:16:23;;;;;;;9.73;7.30;;;;;;;5.71;58.05;97327.16;4975500;28;103232;-61
2023/03/07 08:18:54;;;;;;;9.60;7.17;;;;;;;6.05;57.72;97322.88;4971383;28;103064;-61
2023/03/07 08:21:23;;;;;;;8.80;7.27;;;;;;;6.27;56.75;97321.13;4972525;28;102696;-61
2023/03/07 08:23:51;;;;;;;11.00;7.23;;;;;;;6.46;56.79;97315.28;4975524;28;102850;-61
2023/03/07 08:26:19;;;;;;;9.77;7.00;;;;;;;6.24;55.95;97316.09;4976081;28;103145;-60
2023/03/07 08:28:47;;;;;;;8.47;6.83;;;;;;;6.09;56.18;97305.97;4973138;28;103395;-61
2023/03/07 08:31:17;;;;;;;10.20;7.17;;;;;;;6.20;56.76;97317.28;4971889;28;102578;-61
2023/03/07 08:33:46;;;;;;;9.30;6.90;;;;;;;6.22;56.35;97315.41;4974876;28;102999;-61
2023/03/07 08:36:16;;;;;;;8.40;6.43;;;;;;;6.37;56.14;97306.34;4972737;28;104499;-61
2023/03/07 08:38:49;;;;;;;9.27;6.63;;;;;;;6.58;55.91;97311.72;4969648;28;103203;-61
2023/03/07 08:41:18;;;;;;;9.80;6.97;;;;;;;6.35;56.03;97308.25;4973049;28;102874;-61
2023/03/07 08:43:47;;;;;;;9.33;7.27;;;;;;;6.66;55.96;97308.50;4969382;28;103365;-61
2023/03/07 08:46:15;;;;;;;8.97;6.10;;;;;;;6.79;56.02;97304.78;4974545;28;103983;-61
2023/03/07 08:48:43;;;;;;;9.10;6.40;;;;;;;6.82;54.73;97307.16;4977672;28;103244;-61
2023/03/07 08:51:14;;;;;;;9.23;6.00;;;;;;;6.95;55.42;97299.16;4970950;28;102689;-61
2023/03/07 08:53:44;;;;;;;8.87;6.67;;;;;;;6.98;54.91;97306.78;4976474;28;104239;-61
2023/03/07 08:56:14;;;;;;;10.07;6.20;;;;;;;7.18;54.48;97292.91;4975910;28;103378;-61
2023/03/07 08:58:43;;;;;;;8.27;5.57;;;;;;;7.46;53.71;97287.09;4974583;28;103204;-61
2023/03/07 09:01:12;;;;;;;7.97;6.40;;;;;;;7.48;53.43;97290.41;4975605;28;102973;-61
2023/03/07 09:03:40;;;;;;;10.23;6.50;;;;;;;7.45;53.29;97295.91;4974401;28;104128;-61
2023/03/07 09:06:14;;;;;;;9.23;6.27;;;;;;;7.15;53.42;97295.78;4974784;28;103910;-61
2023/03/07 09:08:44;;;;;;;7.60;6.40;;;;;;;7.10;53.57;97294.47;4975926;28;104251;-61
2023/03/07 09:11:12;;;;;;;7.87;6.60;;;;;;;7.32;52.64;97294.41;4965612;28;102718;-61
2023/03/07 09:13:39;;;;;;;7.97;6.03;;;;;;;7.50;52.95;97285.03;4973548;28;102844;-61
2023/03/07 09:16:22;;;;;;;8.27;6.40;;;;;;;7.43;51.65;97282.09;4974687;28;103334;-61
2023/03/07 09:18:50;;;;;;;8.10;6.13;;;;;;;7.65;50.92;97285.56;4975377;28;103255;-61
2023/03/07 09:21:18;;;;;;;6.73;5.53;;;;;;;7.72;50.19;97278.84;4971363;28;103721;-61
2023/03/07 09:23:50;;;;;;;7.53;5.50;;;;;;;7.84;50.44;97272.56;4975954;28;102783;-61
2023/03/07 09:26:17;;;;;;;7.73;5.67;;;;;;;8.21;49.75;97279.03;4967733;28;104104;-61
2023/03/07 09:28:45;;;;;;;7.70;5.40;;;;;;;8.14;48.51;97277.84;4975799;28;103274;-61
2023/03/07 09:31:16;;;;;;;7.33;5.43;;;;;;;8.24;48.96;97286.66;4968191;28;102642;-61
2023/03/07 09:33:44;;;;;;;6.73;5.83;;;;;;;8.48;49.00;97284.56;4968320;28;102968;-61
2023/03/07 09:36:16;;;;;;;8.43;6.57;;;;;;;7.78;49.02;97286.19;4975436;28;103311;-61
2023/03/07 09:38:45;;;;;;;6.20;5.40;;;;;;;7.58;49.19;97285.22;4973675;28;103300;-61
2023/03/07 09:41:42;;;;;;;7.97;5.53;;;;;;;7.24;48.81;97291.59;4974632;28;102791;-61
2023/03/07 09:44:20;;;;;;;6.03;5.43;;;;;;;7.20;49.46;97283.09;4971423;28;102753;-60
2023/03/07 09:47:27;;;;;;;5.67;4.70;;;;;;;7.31;49.41;97287.47;4974523;28;103192;-61
2023/03/07 09:49:58;;;;;;;9.03;5.53;;;;;;;7.10;50.08;97295.31;4975571;28;103160;-62
2023/03/07 09:52:29;;;;;;;5.47;4.87;;;;;;;7.68;49.76;97287.94;4975280;28;102705;-61
2023/03/07 09:54:59;;;;;;;6.07;4.77;;;;;;;7.36;49.32;97282.69;4975350;28;102795;-62
2023/03/07 09:57:31;;;;;;;6.13;4.57;;;;;;;6.82;49.95;97280.09;4968003;28;103245;-61
2023/03/07 10:00:04;;;;;;;5.57;4.93;;;;;;;7.02;49.61;97281.94;4972451;28;103158;-61
2023/03/07 10:02:46;;;;;;;5.77;4.70;;;;;;;7.07;49.35;97279.81;4970729;28;102743;-61
2023/03/07 10:05:32;;;;;;;7.43;5.20;;;;;;;7.05;49.69;97271.19;4974839;28;102652;-61
2023/03/07 10:08:03;;;;;;;5.90;4.97;;;;;;;6.82;49.91;97280.09;4972970;28;104807;-61
2023/03/07 10:10:38;;;;;;;6.10;5.00;;;;;;;6.88;50.01;97279.59;4974012;28;103202;-61
2023/03/07 10:13:20;;;;;;;6.17;5.10;;;;;;;6.82;49.70;97275.66;4973414;28;102663;-61
2023/03/07 10:15:52;;;;;;;5.23;4.23;;;;;;;6.48;49.84;97276.66;4970363;28;102621;-62
2023/03/07 10:18:47;;;;;;;6.53;4.43;;;;;;;6.58;49.86;97268.91;4977013;28;103182;-61
2023/03/07 10:21:31;;;;;;;5.37;4.00;;;;;;;6.94;50.06;97271.22;4968014;28;104183;-61
2023/03/07 10:24:33;;;;;;;7.03;4.80;;;;;;;6.75;49.89;97273.66;4978033;28;102644;-61
2023/03/07 10:27:06;;;;;;;6.90;5.37;;;;;;;6.72;50.08;97268.66;4974809;28;103948;-61
2023/03/07 10:29:42;;;;;;;5.47;4.73;;;;;;;6.54;50.15;97268.28;4978842;28;104066;-61
2023/03/07 10:32:20;;;;;;;6.27;4.60;;;;;;;6.60;50.57;97264.34;4978248;28;103360;-61
2023/03/07 10:34:55;;;;;;;5.63;4.60;;;;;;;6.48;50.20;97262.72;4977064;28;103083;-61
2023/03/07 10:37:42;;;;;;;6.23;4.87;;;;;;;6.41;49.52;97264.97;4977256;28;102624;-61
2023/03/07 10:40:19;;;;;;;7.17;4.60;;;;;;;6.47;50.26;97258.41;4974191;28;103244;-61
2023/03/07 10:42:48;;;;;;;6.10;5.00;;;;;;;6.45;50.31;97257.69;4976616;28;103334;-61
2023/03/07 10:45:17;;;;;;;5.97;4.67;;;;;;;6.49;51.50;97254.72;4978798;28;102755;-61
2023/03/07 10:47:45;;;;;;;6.20;4.97;;;;;;;6.37;51.08;97255.69;4980377;28;102721;-61
2023/03/07 10:50:24;;;;;;;6.27;4.77;;;;;;;6.25;51.13;97254.84;4978858;28;103290;-61
2023/03/07 10:52:55;;;;;;;7.23;5.67;;;;;;;6.32;51.09;97255.19;4979521;28;103036;-61
2023/03/07 10:55:31;;;;;;;6.47;5.33;;;;;;;6.34;51.29;97251.50;4976351;28;103391;-61
2023/03/07 10:58:19;;;;;;;6.47;4.90;;;;;;;6.27;50.96;97252.94;4972916;28;102762;-61
2023/03/07 11:01:01;;;;;;;6.53;4.40;;;;;;;6.60;51.03;97243.34;4979178;28;102709;-61
2023/03/07 11:03:33;;;;;;;7.93;5.30;;;;;;;6.68;50.68;97235.75;4978983;28;104763;-61
2023/03/07 11:06:32;;;;;;;6.03;4.93;;;;;;;6.58;50.26;97246.13;4975165;28;102631;-61
2023/03/07 11:09:22;;;;;;;6.53;4.13;;;;;;;6.34;50.17;97243.63;4965205;28;103063;-61
2023/03/07 11:11:56;;;;;;;6.07;4.43;;;;;;;6.60;49.92;97243.34;4977484;28;103175;-61
2023/03/07 11:14:25;;;;;;;7.40;4.67;;;;;;;6.35;50.07;97242.69;4974117;28;103322;-61
2023/03/07 11:16:58;;;;;;;6.63;4.20;;;;;;;6.57;49.92;97238.38;4976459;28;102709;-61
2023/03/07 11:19:36;;;;;;;6.90;5.43;;;;;;;6.15;49.68;97235.53;4978242;28;103247;-61
2023/03/07 11:22:16;;;;;;;6.10;4.57;;;;;;;6.31;49.95;97232.56;4976956;28;103067;-61
2023/03/07 11:24:50;;;;;;;5.93;4.60;;;;;;;6.45;49.59;97228.84;4972412;28;103004;-61
2023/03/07 11:27:25;;;;;;;6.83;5.33;;;;;;;6.49;48.88;97230.25;4976356;28;102655;-61
2023/03/07 11:30:07;;;;;;;7.77;5.73;;;;;;;6.40;49.23;97214.28;4972778;28;102901;-61
2023/03/07 11:32:42;;;;;;;10.60;5.63;;;;;;;6.34;49.01;97220.00;4973827;28;103611;-61
2023/03/07 11:35:18;;;;;;;7.03;5.73;;;;;;;6.45;48.77;97210.47;4972603;28;103224;-60
2023/03/07 11:37:58;;;;;;;8.13;5.03;;;;;;;6.55;49.01;97214.88;4972832;28;102676;-61
2023/03/07 11:40:31;;;;;;;8.63;5.00;;;;;;;6.41;48.47;97223.00;4978330;28;102918;-61
2023/03/07 11:43:11;;;;;;;6.83;5.50;;;;;;;6.29;49.11;97226.56;4972305;28;103263;-61
2023/03/07 11:45:50;;;;;;;7.60;4.90;;;;;;;6.15;49.03;97224.19;4972982;28;103222;-61
2023/03/07 11:48:33;;;;;;;7.30;5.57;;;;;;;6.29;48.97;97219.53;4971734;28;102662;-61